sensor_id;sensor_type;location;lat;lon;timestamp;temperature;humidity
81869;DHT22;71320;52.252;13.382;2023-08-06T00:01:10;22.00;60.10
81869;DHT22;71320;52.252;13.382;2023-08-06T00:06:12;22.00;60.30
81869;DHT22;71320;52.252;13.382;2023-08-06T00:11:15;22.00;60.50
81869;DHT22;71320;52.252;13.382;2023-08-06T00:16:16;22.00;60.40
81869;DHT22;71320;52.252;13.382;2023-08-06T00:21:18;22.00;60.50
81869;DHT22;71320;52.252;13.382;2023-08-06T00:26:21;21.90;60.60
81869;DHT22;71320;52.252;13.382;2023-08-06T00:31:22;21.90;60.60
81869;DHT22;71320;52.252;13.382;2023-08-06T00:36:24;21.90;60.70
81869;DHT22;71320;52.252;13.382;2023-08-06T00:41:27;21.90;60.80
81869;DHT22;71320;52.252;13.382;2023-08-06T00:46:29;21.90;61.10
81869;DHT22;71320;52.252;13.382;2023-08-06T00:51:31;21.90;61.10
81869;DHT22;71320;52.252;13.382;2023-08-06T00:56:36;21.80;61.40
81869;DHT22;71320;52.252;13.382;2023-08-06T01:01:38;21.90;61.70
81869;DHT22;71320;52.252;13.382;2023-08-06T01:06:45;21.80;61.60
81869;DHT22;71320;52.252;13.382;2023-08-06T01:11:57;21.90;61.60
81869;DHT22;71320;52.252;13.382;2023-08-06T01:17:01;21.80;61.80
81869;DHT22;71320;52.252;13.382;2023-08-06T01:22:05;21.80;61.80
81869;DHT22;71320;52.252;13.382;2023-08-06T01:27:13;21.80;61.90
81869;DHT22;71320;52.252;13.382;2023-08-06T01:32:16;21.70;62.00
81869;DHT22;71320;52.252;13.382;2023-08-06T01:37:20;21.70;62.00
81869;DHT22;71320;52.252;13.382;2023-08-06T01:42:22;21.70;62.10
81869;DHT22;71320;52.252;13.382;2023-08-06T01:47:23;21.70;62.20
81869;DHT22;71320;52.252;13.382;2023-08-06T01:52:28;21.70;62.30
81869;DHT22;71320;52.252;13.382;2023-08-06T01:57:29;21.70;62.40
81869;DHT22;71320;52.252;13.382;2023-08-06T02:02:31;21.70;62.60
81869;DHT22;71320;52.252;13.382;2023-08-06T02:07:35;21.70;62.50
81869;DHT22;71320;52.252;13.382;2023-08-06T02:12:37;21.70;62.80
81869;DHT22;71320;52.252;13.382;2023-08-06T02:17:39;21.70;62.90
81869;DHT22;71320;52.252;13.382;2023-08-06T02:22:42;21.60;62.90
81869;DHT22;71320;52.252;13.382;2023-08-06T02:27:43;21.60;63.10
81869;DHT22;71320;52.252;13.382;2023-08-06T02:32:45;21.60;63.20
81869;DHT22;71320;52.252;13.382;2023-08-06T02:37:48;21.60;63.30
81869;DHT22;71320;52.252;13.382;2023-08-06T02:42:50;21.60;63.30
81869;DHT22;71320;52.252;13.382;2023-08-06T02:47:51;21.50;63.30
81869;DHT22;71320;52.252;13.382;2023-08-06T02:52:54;21.50;63.30
81869;DHT22;71320;52.252;13.382;2023-08-06T02:57:56;21.50;63.20
81869;DHT22;71320;52.252;13.382;2023-08-06T03:02:58;21.50;63.00
81869;DHT22;71320;52.252;13.382;2023-08-06T03:08:12;21.50;62.90
81869;DHT22;71320;52.252;13.382;2023-08-06T03:13:15;21.50;62.90
81869;DHT22;71320;52.252;13.382;2023-08-06T03:18:16;21.50;62.60
81869;DHT22;71320;52.252;13.382;2023-08-06T03:23:20;21.50;62.80
81869;DHT22;71320;52.252;13.382;2023-08-06T03:28:23;21.40;62.80
81869;DHT22;71320;52.252;13.382;2023-08-06T03:33:25;21.40;63.10
81869;DHT22;71320;52.252;13.382;2023-08-06T03:38:28;21.40;63.00
81869;DHT22;71320;52.252;13.382;2023-08-06T03:43:30;21.40;63.00
81869;DHT22;71320;52.252;13.382;2023-08-06T03:48:31;21.40;63.20
81869;DHT22;71320;52.252;13.382;2023-08-06T03:53:35;21.30;63.10
81869;DHT22;71320;52.252;13.382;2023-08-06T03:58:37;21.30;63.20
81869;DHT22;71320;52.252;13.382;2023-08-06T04:03:39;21.30;63.10
81869;DHT22;71320;52.252;13.382;2023-08-06T04:08:41;21.30;63.20
81869;DHT22;71320;52.252;13.382;2023-08-06T04:13:43;21.30;63.30
81869;DHT22;71320;52.252;13.382;2023-08-06T04:18:45;21.30;63.30
81869;DHT22;71320;52.252;13.382;2023-08-06T04:23:48;21.30;63.20
81869;DHT22;71320;52.252;13.382;2023-08-06T04:28:52;21.30;63.40
81869;DHT22;71320;52.252;13.382;2023-08-06T04:33:55;21.30;63.40
81869;DHT22;71320;52.252;13.382;2023-08-06T04:38:57;21.20;63.50
81869;DHT22;71320;52.252;13.382;2023-08-06T04:43:59;21.20;63.40
81869;DHT22;71320;52.252;13.382;2023-08-06T04:49:01;21.20;63.50
81869;DHT22;71320;52.252;13.382;2023-08-06T04:54:04;21.20;63.40
81869;DHT22;71320;52.252;13.382;2023-08-06T04:59:05;21.20;63.50
81869;DHT22;71320;52.252;13.382;2023-08-06T05:04:07;21.20;63.60
81869;DHT22;71320;52.252;13.382;2023-08-06T05:09:10;21.20;63.90
81869;DHT22;71320;52.252;13.382;2023-08-06T05:14:11;21.20;63.90
81869;DHT22;71320;52.252;13.382;2023-08-06T05:19:13;21.20;64.00
81869;DHT22;71320;52.252;13.382;2023-08-06T05:24:16;21.20;64.20
81869;DHT22;71320;52.252;13.382;2023-08-06T05:29:18;21.20;64.20
81869;DHT22;71320;52.252;13.382;2023-08-06T05:34:19;21.10;64.00
81869;DHT22;71320;52.252;13.382;2023-08-06T05:39:22;21.20;64.20
81869;DHT22;71320;52.252;13.382;2023-08-06T05:44:24;21.10;64.10
81869;DHT22;71320;52.252;13.382;2023-08-06T05:49:25;21.10;64.30
81869;DHT22;71320;52.252;13.382;2023-08-06T05:54:29;21.10;64.30
81869;DHT22;71320;52.252;13.382;2023-08-06T05:59:30;21.10;64.20
81869;DHT22;71320;52.252;13.382;2023-08-06T06:04:32;21.10;64.30
81869;DHT22;71320;52.252;13.382;2023-08-06T06:09:35;21.20;64.20
81869;DHT22;71320;52.252;13.382;2023-08-06T06:14:36;21.10;64.40
81869;DHT22;71320;52.252;13.382;2023-08-06T06:19:38;21.10;64.50
81869;DHT22;71320;52.252;13.382;2023-08-06T06:24:41;21.10;64.70
81869;DHT22;71320;52.252;13.382;2023-08-06T06:29:42;21.10;64.70
81869;DHT22;71320;52.252;13.382;2023-08-06T06:34:44;21.10;64.80
81869;DHT22;71320;52.252;13.382;2023-08-06T06:39:47;21.10;64.70
81869;DHT22;71320;52.252;13.382;2023-08-06T06:44:49;21.10;65.00
81869;DHT22;71320;52.252;13.382;2023-08-06T06:49:50;21.10;65.00
81869;DHT22;71320;52.252;13.382;2023-08-06T06:54:54;21.10;65.20
81869;DHT22;71320;52.252;13.382;2023-08-06T06:59:55;21.20;65.40
81869;DHT22;71320;52.252;13.382;2023-08-06T07:04:57;21.20;65.80
81869;DHT22;71320;52.252;13.382;2023-08-06T07:10:00;21.10;65.70
81869;DHT22;71320;52.252;13.382;2023-08-06T07:15:01;21.20;65.80
81869;DHT22;71320;52.252;13.382;2023-08-06T07:20:04;21.20;65.90
81869;DHT22;71320;52.252;13.382;2023-08-06T07:25:08;21.10;66.00
81869;DHT22;71320;52.252;13.382;2023-08-06T07:30:10;21.20;65.90
81869;DHT22;71320;52.252;13.382;2023-08-06T07:35:11;21.20;65.80
81869;DHT22;71320;52.252;13.382;2023-08-06T07:40:16;21.20;65.80
81869;DHT22;71320;52.252;13.382;2023-08-06T07:45:18;21.20;65.80
81869;DHT22;71320;52.252;13.382;2023-08-06T07:50:19;21.20;65.80
81869;DHT22;71320;52.252;13.382;2023-08-06T07:55:23;21.10;65.60
81869;DHT22;71320;52.252;13.382;2023-08-06T08:00:24;21.10;65.20
81869;DHT22;71320;52.252;13.382;2023-08-06T08:05:26;21.10;65.70
81869;DHT22;71320;52.252;13.382;2023-08-06T08:10:29;21.20;65.40
81869;DHT22;71320;52.252;13.382;2023-08-06T08:15:31;21.20;65.60
81869;DHT22;71320;52.252;13.382;2023-08-06T08:20:33;21.20;65.80
81869;DHT22;71320;52.252;13.382;2023-08-06T08:25:37;21.20;66.50
81869;DHT22;71320;52.252;13.382;2023-08-06T08:30:40;21.20;66.30
81869;DHT22;71320;52.252;13.382;2023-08-06T08:35:42;21.20;66.80
81869;DHT22;71320;52.252;13.382;2023-08-06T08:40:46;21.20;66.90
81869;DHT22;71320;52.252;13.382;2023-08-06T08:45:50;21.30;67.00
81869;DHT22;71320;52.252;13.382;2023-08-06T08:50:52;21.30;67.00
81869;DHT22;71320;52.252;13.382;2023-08-06T08:55:55;21.30;67.20
81869;DHT22;71320;52.252;13.382;2023-08-06T09:00:57;21.30;67.50
81869;DHT22;71320;52.252;13.382;2023-08-06T09:06:00;21.30;67.50
81869;DHT22;71320;52.252;13.382;2023-08-06T09:11:14;21.30;67.40
81869;DHT22;71320;52.252;13.382;2023-08-06T09:16:16;21.30;67.60
81869;DHT22;71320;52.252;13.382;2023-08-06T09:21:18;21.30;67.30
81869;DHT22;71320;52.252;13.382;2023-08-06T09:26:33;21.30;67.60
81869;DHT22;71320;52.252;13.382;2023-08-06T09:31:40;21.30;67.60
81869;DHT22;71320;52.252;13.382;2023-08-06T09:36:42;21.30;67.70
81869;DHT22;71320;52.252;13.382;2023-08-06T09:41:46;21.40;67.70
81869;DHT22;71320;52.252;13.382;2023-08-06T09:46:49;21.30;67.60
81869;DHT22;71320;52.252;13.382;2023-08-06T09:51:51;21.40;68.00
81869;DHT22;71320;52.252;13.382;2023-08-06T09:56:57;21.40;67.70
81869;DHT22;71320;52.252;13.382;2023-08-06T10:01:59;21.40;67.80
81869;DHT22;71320;52.252;13.382;2023-08-06T10:07:01;21.40;68.30
81869;DHT22;71320;52.252;13.382;2023-08-06T10:12:05;21.40;67.90
81869;DHT22;71320;52.252;13.382;2023-08-06T10:17:07;21.40;67.90
81869;DHT22;71320;52.252;13.382;2023-08-06T10:22:10;21.40;67.90
81869;DHT22;71320;52.252;13.382;2023-08-06T10:27:14;21.40;68.30
81869;DHT22;71320;52.252;13.382;2023-08-06T10:32:20;21.40;67.70
81869;DHT22;71320;52.252;13.382;2023-08-06T10:37:23;21.40;68.20
81869;DHT22;71320;52.252;13.382;2023-08-06T10:42:28;21.40;68.40
81869;DHT22;71320;52.252;13.382;2023-08-06T10:47:30;21.40;68.10
81869;DHT22;71320;52.252;13.382;2023-08-06T10:52:39;21.50;68.30
81869;DHT22;71320;52.252;13.382;2023-08-06T10:57:42;21.50;68.20
81869;DHT22;71320;52.252;13.382;2023-08-06T11:02:43;21.50;67.90
81869;DHT22;71320;52.252;13.382;2023-08-06T11:07:45;21.50;68.10
81869;DHT22;71320;52.252;13.382;2023-08-06T11:12:49;21.50;68.40
81869;DHT22;71320;52.252;13.382;2023-08-06T11:17:51;21.50;68.50
81869;DHT22;71320;52.252;13.382;2023-08-06T11:22:53;21.50;68.50
81869;DHT22;71320;52.252;13.382;2023-08-06T11:27:56;21.50;68.70
81869;DHT22;71320;52.252;13.382;2023-08-06T11:32:57;21.50;68.40
81869;DHT22;71320;52.252;13.382;2023-08-06T11:38:00;21.50;68.10
81869;DHT22;71320;52.252;13.382;2023-08-06T11:43:03;21.50;68.20
81869;DHT22;71320;52.252;13.382;2023-08-06T11:48:07;21.60;68.60
81869;DHT22;71320;52.252;13.382;2023-08-06T11:53:12;21.60;68.60
81869;DHT22;71320;52.252;13.382;2023-08-06T11:58:17;21.60;68.80
81869;DHT22;71320;52.252;13.382;2023-08-06T12:03:19;21.50;68.90
81869;DHT22;71320;52.252;13.382;2023-08-06T12:08:26;21.60;68.60
81869;DHT22;71320;52.252;13.382;2023-08-06T12:13:29;21.60;68.90
81869;DHT22;71320;52.252;13.382;2023-08-06T12:18:31;21.60;68.90
81869;DHT22;71320;52.252;13.382;2023-08-06T12:23:32;21.60;69.00
81869;DHT22;71320;52.252;13.382;2023-08-06T12:28:35;21.60;68.80
81869;DHT22;71320;52.252;13.382;2023-08-06T12:33:37;21.60;68.80
81869;DHT22;71320;52.252;13.382;2023-08-06T12:38:38;21.60;68.80
81869;DHT22;71320;52.252;13.382;2023-08-06T12:43:41;21.60;68.80
81869;DHT22;71320;52.252;13.382;2023-08-06T12:48:43;21.60;68.80
81869;DHT22;71320;52.252;13.382;2023-08-06T12:53:44;21.60;68.60
81869;DHT22;71320;52.252;13.382;2023-08-06T12:58:47;21.60;68.70
81869;DHT22;71320;52.252;13.382;2023-08-06T13:03:49;21.60;68.50
81869;DHT22;71320;52.252;13.382;2023-08-06T13:08:50;21.60;68.60
81869;DHT22;71320;52.252;13.382;2023-08-06T13:13:53;21.60;68.70
81869;DHT22;71320;52.252;13.382;2023-08-06T13:18:55;21.60;69.00
81869;DHT22;71320;52.252;13.382;2023-08-06T13:23:57;21.60;68.60
81869;DHT22;71320;52.252;13.382;2023-08-06T13:29:00;21.60;68.40
81869;DHT22;71320;52.252;13.382;2023-08-06T13:34:02;21.60;68.40
81869;DHT22;71320;52.252;13.382;2023-08-06T13:39:03;21.60;68.20
81869;DHT22;71320;52.252;13.382;2023-08-06T13:44:07;21.60;68.60
81869;DHT22;71320;52.252;13.382;2023-08-06T13:49:08;21.50;67.80
81869;DHT22;71320;52.252;13.382;2023-08-06T13:54:10;21.50;66.20
81869;DHT22;71320;52.252;13.382;2023-08-06T13:59:13;21.50;66.20
81869;DHT22;71320;52.252;13.382;2023-08-06T14:04:14;21.40;65.60
81869;DHT22;71320;52.252;13.382;2023-08-06T14:09:16;21.30;64.90
81869;DHT22;71320;52.252;13.382;2023-08-06T14:14:20;21.30;64.50
81869;DHT22;71320;52.252;13.382;2023-08-06T14:19:26;21.30;64.40
81869;DHT22;71320;52.252;13.382;2023-08-06T14:24:27;21.20;64.00
81869;DHT22;71320;52.252;13.382;2023-08-06T14:29:30;21.20;63.90
81869;DHT22;71320;52.252;13.382;2023-08-06T14:34:32;21.10;63.50
81869;DHT22;71320;52.252;13.382;2023-08-06T14:39:34;21.10;63.80
81869;DHT22;71320;52.252;13.382;2023-08-06T14:44:36;21.10;63.70
81869;DHT22;71320;52.252;13.382;2023-08-06T14:49:38;21.10;63.70
81869;DHT22;71320;52.252;13.382;2023-08-06T14:54:40;21.10;64.40
81869;DHT22;71320;52.252;13.382;2023-08-06T14:59:43;21.20;64.90
81869;DHT22;71320;52.252;13.382;2023-08-06T15:04:44;21.10;65.30
81869;DHT22;71320;52.252;13.382;2023-08-06T15:09:46;21.10;65.70
81869;DHT22;71320;52.252;13.382;2023-08-06T15:14:49;21.10;65.80
81869;DHT22;71320;52.252;13.382;2023-08-06T15:19:50;21.10;65.70
81869;DHT22;71320;52.252;13.382;2023-08-06T15:24:52;21.10;65.70
81869;DHT22;71320;52.252;13.382;2023-08-06T15:29:55;21.10;65.70
81869;DHT22;71320;52.252;13.382;2023-08-06T15:34:57;21.10;66.10
81869;DHT22;71320;52.252;13.382;2023-08-06T15:39:59;21.10;65.80
81869;DHT22;71320;52.252;13.382;2023-08-06T15:45:02;21.10;65.80
81869;DHT22;71320;52.252;13.382;2023-08-06T15:50:04;21.10;65.80
81869;DHT22;71320;52.252;13.382;2023-08-06T15:55:07;21.00;65.70
81869;DHT22;71320;52.252;13.382;2023-08-06T16:00:11;21.00;65.70
81869;DHT22;71320;52.252;13.382;2023-08-06T16:05:13;21.00;65.60
81869;DHT22;71320;52.252;13.382;2023-08-06T16:10:15;21.00;65.80
81869;DHT22;71320;52.252;13.382;2023-08-06T16:15:18;21.00;65.80
81869;DHT22;71320;52.252;13.382;2023-08-06T16:20:19;21.00;66.20
81869;DHT22;71320;52.252;13.382;2023-08-06T16:25:21;21.00;66.40
81869;DHT22;71320;52.252;13.382;2023-08-06T16:30:24;21.00;66.50
81869;DHT22;71320;52.252;13.382;2023-08-06T16:35:27;21.00;66.40
81869;DHT22;71320;52.252;13.382;2023-08-06T16:40:28;21.00;66.70
81869;DHT22;71320;52.252;13.382;2023-08-06T16:45:31;20.90;66.60
81869;DHT22;71320;52.252;13.382;2023-08-06T16:50:38;20.90;66.60
81869;DHT22;71320;52.252;13.382;2023-08-06T16:55:39;20.90;66.60
81869;DHT22;71320;52.252;13.382;2023-08-06T17:00:44;20.90;66.70
81869;DHT22;71320;52.252;13.382;2023-08-06T17:05:46;20.90;66.70
81869;DHT22;71320;52.252;13.382;2023-08-06T17:10:48;20.90;66.90
81869;DHT22;71320;52.252;13.382;2023-08-06T17:15:51;20.90;66.90
81869;DHT22;71320;52.252;13.382;2023-08-06T17:20:53;20.90;67.00
81869;DHT22;71320;52.252;13.382;2023-08-06T17:25:55;20.90;66.80
81869;DHT22;71320;52.252;13.382;2023-08-06T17:30:57;20.90;66.80
81869;DHT22;71320;52.252;13.382;2023-08-06T17:35:59;20.90;66.90
81869;DHT22;71320;52.252;13.382;2023-08-06T17:41:01;20.90;66.80
81869;DHT22;71320;52.252;13.382;2023-08-06T17:46:06;20.90;66.80
81869;DHT22;71320;52.252;13.382;2023-08-06T17:51:08;20.80;66.60
81869;DHT22;71320;52.252;13.382;2023-08-06T17:56:09;20.80;66.80
81869;DHT22;71320;52.252;13.382;2023-08-06T18:01:12;20.80;66.90
81869;DHT22;71320;52.252;13.382;2023-08-06T18:06:14;20.80;66.90
81869;DHT22;71320;52.252;13.382;2023-08-06T18:11:15;20.80;66.80
81869;DHT22;71320;52.252;13.382;2023-08-06T18:16:19;20.80;66.80
81869;DHT22;71320;52.252;13.382;2023-08-06T18:21:21;20.70;66.80
81869;DHT22;71320;52.252;13.382;2023-08-06T18:26:22;20.70;66.70
81869;DHT22;71320;52.252;13.382;2023-08-06T18:31:26;20.70;66.80
81869;DHT22;71320;52.252;13.382;2023-08-06T18:36:27;20.70;66.70
81869;DHT22;71320;52.252;13.382;2023-08-06T18:41:29;20.70;66.80
81869;DHT22;71320;52.252;13.382;2023-08-06T18:46:32;20.70;66.70
81869;DHT22;71320;52.252;13.382;2023-08-06T18:51:34;20.80;66.80
81869;DHT22;71320;52.252;13.382;2023-08-06T18:56:37;20.70;66.70
81869;DHT22;71320;52.252;13.382;2023-08-06T19:01:40;20.70;66.70
81869;DHT22;71320;52.252;13.382;2023-08-06T19:06:41;20.70;66.70
81869;DHT22;71320;52.252;13.382;2023-08-06T19:11:43;20.60;66.60
81869;DHT22;71320;52.252;13.382;2023-08-06T19:16:46;20.60;66.60
81869;DHT22;71320;52.252;13.382;2023-08-06T19:21:48;20.60;66.60
81869;DHT22;71320;52.252;13.382;2023-08-06T19:26:49;20.60;66.40
81869;DHT22;71320;52.252;13.382;2023-08-06T19:31:52;20.60;66.50
81869;DHT22;71320;52.252;13.382;2023-08-06T19:36:54;20.60;66.50
81869;DHT22;71320;52.252;13.382;2023-08-06T19:41:56;20.60;66.50
81869;DHT22;71320;52.252;13.382;2023-08-06T19:46:58;20.60;66.60
81869;DHT22;71320;52.252;13.382;2023-08-06T19:52:00;20.60;66.50
81869;DHT22;71320;52.252;13.382;2023-08-06T19:57:02;20.50;66.80
81869;DHT22;71320;52.252;13.382;2023-08-06T20:02:05;20.50;66.50
81869;DHT22;71320;52.252;13.382;2023-08-06T20:07:07;20.50;66.60
81869;DHT22;71320;52.252;13.382;2023-08-06T20:12:08;20.50;66.60
81869;DHT22;71320;52.252;13.382;2023-08-06T20:17:11;20.50;66.60
81869;DHT22;71320;52.252;13.382;2023-08-06T20:22:13;20.50;66.60
81869;DHT22;71320;52.252;13.382;2023-08-06T20:27:15;20.50;66.50
81869;DHT22;71320;52.252;13.382;2023-08-06T20:32:17;20.50;66.70
81869;DHT22;71320;52.252;13.382;2023-08-06T20:37:19;20.50;66.70
81869;DHT22;71320;52.252;13.382;2023-08-06T20:42:21;20.40;66.60
81869;DHT22;71320;52.252;13.382;2023-08-06T20:47:23;20.50;66.80
81869;DHT22;71320;52.252;13.382;2023-08-06T20:52:25;20.50;66.80
81869;DHT22;71320;52.252;13.382;2023-08-06T20:57:27;20.50;66.70
81869;DHT22;71320;52.252;13.382;2023-08-06T21:02:30;20.40;66.80
81869;DHT22;71320;52.252;13.382;2023-08-06T21:07:31;20.40;67.00
81869;DHT22;71320;52.252;13.382;2023-08-06T21:12:33;20.40;67.20
81869;DHT22;71320;52.252;13.382;2023-08-06T21:17:36;20.40;67.20
81869;DHT22;71320;52.252;13.382;2023-08-06T21:22:38;20.40;67.30
81869;DHT22;71320;52.252;13.382;2023-08-06T21:27:40;20.40;67.20
81869;DHT22;71320;52.252;13.382;2023-08-06T21:32:49;20.40;67.10
81869;DHT22;71320;52.252;13.382;2023-08-06T21:37:50;20.40;67.30
81869;DHT22;71320;52.252;13.382;2023-08-06T21:42:52;20.40;67.40
81869;DHT22;71320;52.252;13.382;2023-08-06T21:47:55;20.40;67.50
81869;DHT22;71320;52.252;13.382;2023-08-06T21:52:56;20.40;67.50
81869;DHT22;71320;52.252;13.382;2023-08-06T21:57:58;20.40;67.60
81869;DHT22;71320;52.252;13.382;2023-08-06T22:03:01;20.40;67.60
81869;DHT22;71320;52.252;13.382;2023-08-06T22:08:03;20.30;67.40
81869;DHT22;71320;52.252;13.382;2023-08-06T22:13:05;20.40;67.40
81869;DHT22;71320;52.252;13.382;2023-08-06T22:18:08;20.40;67.50
81869;DHT22;71320;52.252;13.382;2023-08-06T22:23:09;20.30;67.50
81869;DHT22;71320;52.252;13.382;2023-08-06T22:28:11;20.40;67.50
81869;DHT22;71320;52.252;13.382;2023-08-06T22:33:14;20.40;67.40
81869;DHT22;71320;52.252;13.382;2023-08-06T22:38:18;20.30;67.40
81869;DHT22;71320;52.252;13.382;2023-08-06T22:43:19;20.30;67.40
81869;DHT22;71320;52.252;13.382;2023-08-06T22:48:22;20.30;67.30
81869;DHT22;71320;52.252;13.382;2023-08-06T22:53:24;20.30;67.10
81869;DHT22;71320;52.252;13.382;2023-08-06T22:58:25;20.30;66.90
81869;DHT22;71320;52.252;13.382;2023-08-06T23:03:28;20.30;66.70
81869;DHT22;71320;52.252;13.382;2023-08-06T23:08:30;20.20;66.50
81869;DHT22;71320;52.252;13.382;2023-08-06T23:13:32;20.20;66.40
81869;DHT22;71320;52.252;13.382;2023-08-06T23:18:35;20.20;66.10
81869;DHT22;71320;52.252;13.382;2023-08-06T23:23:36;20.20;65.90
81869;DHT22;71320;52.252;13.382;2023-08-06T23:28:38;20.10;65.70
81869;DHT22;71320;52.252;13.382;2023-08-06T23:33:42;20.20;65.80
81869;DHT22;71320;52.252;13.382;2023-08-06T23:38:44;20.10;65.70
81869;DHT22;71320;52.252;13.382;2023-08-06T23:43:45;20.10;65.70
81869;DHT22;71320;52.252;13.382;2023-08-06T23:48:48;20.10;65.80
81869;DHT22;71320;52.252;13.382;2023-08-06T23:53:50;20.10;65.90
81869;DHT22;71320;52.252;13.382;2023-08-06T23:58:51;20.10;65.90
